Time;durP1;ratioP1;P1;durP2;ratioP2;P2;SDS_P1;SDS_P2;PMS_P1;PMS_P2;Temp;Humidity;BMP_temperature;BMP_pressure;BME280_temperature;BME280_humidity;BME280_pressure;Samples;Min_cycle;Max_cycle;Signal;HPM_P1;HPM_P2
2023/07/30 00:00:33;;;;;;;5.28;3.45;;;;;;;16.60;100.00;97879.19;4189763;28;20539;-72
2023/07/30 00:02:33;;;;;;;4.03;3.58;;;;;;;16.49;100.00;97876.63;4188214;28;20059;-72
2023/07/30 00:04:34;;;;;;;5.28;3.58;;;;;;;16.42;100.00;97869.19;4189090;28;20119;-72
2023/07/30 00:06:34;;;;;;;4.95;3.22;;;;;;;16.39;100.00;97870.06;4189693;28;20754;-72
2023/07/30 00:08:34;;;;;;;4.05;2.72;;;;;;;16.37;100.00;97868.91;4188252;28;20162;-72
2023/07/30 00:10:36;;;;;;;4.68;2.90;;;;;;;16.37;100.00;97868.91;4188948;28;20448;-72
2023/07/30 00:12:37;;;;;;;3.25;2.75;;;;;;;16.40;100.00;97862.47;4188420;28;20435;-72
2023/07/30 00:14:37;;;;;;;7.15;3.13;;;;;;;16.40;100.00;97871.63;4189008;28;20048;-72
2023/07/30 00:16:38;;;;;;;4.28;2.97;;;;;;;16.35;100.00;97869.34;4189170;28;20080;-72
2023/07/30 00:18:38;;;;;;;6.93;3.33;;;;;;;16.35;100.00;97879.72;4188958;28;20037;-72
2023/07/30 00:20:38;;;;;;;4.18;3.05;;;;;;;16.32;100.00;97886.19;4189143;28;20139;-72
2023/07/30 00:22:39;;;;;;;4.38;3.00;;;;;;;16.25;100.00;97884.31;4187870;28;20052;-72
2023/07/30 00:24:39;;;;;;;3.42;2.63;;;;;;;16.22;100.00;97882.38;4188461;28;20099;-72
2023/07/30 00:26:39;;;;;;;5.00;3.35;;;;;;;16.15;100.00;97882.53;4189287;28;20430;-72
2023/07/30 00:28:40;;;;;;;3.75;2.97;;;;;;;16.14;100.00;97881.75;4188882;28;20054;-72
2023/07/30 00:30:40;;;;;;;4.85;3.47;;;;;;;16.15;100.00;97880.53;4188848;28;20072;-72
2023/07/30 00:32:43;;;;;;;6.30;3.25;;;;;;;16.17;100.00;97872.50;4188220;28;20052;-72
2023/07/30 00:34:44;;;;;;;5.47;3.40;;;;;;;16.16;100.00;97868.16;4189284;28;20448;-72
2023/07/30 00:36:44;;;;;;;4.57;3.80;;;;;;;16.24;100.00;97877.94;4189095;28;20037;-72
2023/07/30 00:38:44;;;;;;;8.27;3.97;;;;;;;16.25;100.00;97885.09;4188082;28;20422;-72
2023/07/30 00:40:44;;;;;;;7.05;3.17;;;;;;;16.25;100.00;97887.88;4188605;28;20052;-72
2023/07/30 00:42:45;;;;;;;4.35;3.50;;;;;;;16.28;100.00;97886.22;4187590;28;20036;-72
2023/07/30 00:44:45;;;;;;;3.70;3.13;;;;;;;16.29;100.00;97894.16;4188782;28;20040;-72
2023/07/30 00:46:45;;;;;;;3.65;2.92;;;;;;;16.32;100.00;97883.38;4188996;28;20043;-72
2023/07/30 00:48:46;;;;;;;9.02;3.53;;;;;;;16.37;100.00;97894.03;4188606;28;20052;-72
2023/07/30 00:50:46;;;;;;;5.10;3.45;;;;;;;16.37;100.00;97880.84;4189148;28;20079;-72
2023/07/30 00:52:47;;;;;;;4.43;3.40;;;;;;;16.36;100.00;97884.88;4187826;28;20055;-72
2023/07/30 00:54:48;;;;;;;5.40;3.00;;;;;;;16.37;100.00;97889.22;4188394;28;20071;-72
2023/07/30 00:56:52;;;;;;;4.90;2.70;;;;;;;16.33;100.00;97876.56;4188776;28;20043;-72
2023/07/30 00:58:52;;;;;;;5.43;3.33;;;;;;;16.32;100.00;97880.59;4188846;28;20369;-72
2023/07/30 01:00:54;;;;;;;3.88;2.88;;;;;;;16.32;100.00;97875.00;4188779;28;20063;-72
2023/07/30 01:02:54;;;;;;;4.30;3.42;;;;;;;16.31;100.00;97873.44;4191466;28;20288;-72
2023/07/30 01:04:55;;;;;;;3.92;3.22;;;;;;;16.27;100.00;97873.50;4191697;28;20413;-72
2023/07/30 01:06:55;;;;;;;6.60;4.00;;;;;;;16.24;100.00;97880.72;4191409;28;20516;-72
2023/07/30 01:08:56;;;;;;;6.22;4.72;;;;;;;16.17;100.00;97885.69;4191586;28;20128;-72
2023/07/30 01:10:57;;;;;;;5.75;4.60;;;;;;;16.16;100.00;97878.53;4190273;28;20036;-72
2023/07/30 01:13:03;;;;;;;8.55;5.50;;;;;;;16.14;100.00;97875.38;4191067;28;20060;-72
2023/07/30 01:15:05;;;;;;;7.35;5.25;;;;;;;16.13;100.00;97874.56;4191399;28;20044;-72
2023/07/30 01:17:05;;;;;;;6.68;4.72;;;;;;;16.13;100.00;97879.38;4191068;28;20044;-72
2023/07/30 01:19:06;;;;;;;5.25;4.68;;;;;;;16.09;100.00;97879.44;4191618;28;20040;-72
2023/07/30 01:21:06;;;;;;;7.05;4.70;;;;;;;16.04;100.00;97874.34;4191356;28;20045;-72
2023/07/30 01:23:07;;;;;;;4.45;3.78;;;;;;;16.03;100.00;97875.56;4189820;28;20450;-72
2023/07/30 01:25:07;;;;;;;5.95;3.63;;;;;;;15.99;100.00;97877.66;4191388;28;20139;-72
2023/07/30 01:27:14;;;;;;;5.53;4.03;;;;;;;15.97;100.00;97880.06;4191291;28;20032;-72
2023/07/30 01:29:40;;;;;;;4.93;3.85;;;;;;;15.95;100.00;97886.09;4190130;28;20059;-72
2023/07/30 01:31:41;;;;;;;6.07;4.25;;;;;;;15.96;100.00;97889.66;4191346;28;20047;-72
2023/07/30 01:33:43;;;;;;;5.15;4.15;;;;;;;15.89;100.00;97881.44;4191591;28;20040;-72
2023/07/30 01:35:43;;;;;;;6.70;3.65;;;;;;;15.92;100.00;97902.91;4191347;28;20057;-72
2023/07/30 01:37:44;;;;;;;3.75;3.17;;;;;;;15.88;100.00;97885.44;4190504;28;20075;-72
2023/07/30 01:39:47;;;;;;;3.83;3.15;;;;;;;15.85;100.00;97886.31;4191117;28;20048;-72
2023/07/30 01:41:48;;;;;;;6.55;3.70;;;;;;;15.85;100.00;97889.09;4189758;28;20056;-72
2023/07/30 01:43:48;;;;;;;5.80;3.40;;;;;;;15.84;100.00;97893.09;4190675;28;20470;-72
2023/07/30 01:45:48;;;;;;;5.30;3.42;;;;;;;15.82;100.00;97903.91;4190515;28;20434;-72
2023/07/30 01:47:48;;;;;;;4.75;3.17;;;;;;;15.79;100.00;97905.53;4190853;28;20563;-72
2023/07/30 01:49:49;;;;;;;4.20;3.10;;;;;;;15.70;100.00;97902.50;4191150;28;20178;-72
2023/07/30 01:51:49;;;;;;;4.88;3.20;;;;;;;15.70;100.00;97911.66;4190441;28;20186;-72
2023/07/30 01:53:49;;;;;;;4.43;3.10;;;;;;;15.69;100.00;97912.88;4189792;28;20141;-72
2023/07/30 01:55:50;;;;;;;5.30;3.50;;;;;;;15.66;100.00;97912.94;4190802;28;20095;-72
2023/07/30 01:57:50;;;;;;;3.70;3.30;;;;;;;15.65;100.00;97923.31;4173019;28;20068;-72
2023/07/30 01:59:50;;;;;;;7.28;5.97;;;;;;;15.60;100.00;97914.63;4190747;28;20134;-72
2023/07/30 02:01:51;;;;;;;8.20;6.03;;;;;;;15.59;100.00;97910.25;4190556;28;20440;-72
2023/07/30 02:03:51;;;;;;;9.60;6.60;;;;;;;15.57;100.00;97921.06;4189894;28;20045;-72
2023/07/30 02:05:51;;;;;;;9.18;5.60;;;;;;;15.56;100.00;97917.47;4190821;28;20500;-72
2023/07/30 02:07:52;;;;;;;7.30;6.22;;;;;;;15.54;100.00;97914.31;4190428;28;20260;-72
2023/07/30 02:09:52;;;;;;;9.20;6.20;;;;;;;15.51;100.00;97917.16;4191030;28;20467;-72
2023/07/30 02:11:53;;;;;;;8.18;6.07;;;;;;;15.50;100.00;97915.59;4190229;28;20060;-72
2023/07/30 02:13:53;;;;;;;9.70;5.90;;;;;;;15.37;100.00;97909.81;4189553;28;20045;-72
2023/07/30 02:15:53;;;;;;;6.25;5.00;;;;;;;15.36;100.00;97909.03;4190745;28;20503;-72
2023/07/30 02:17:54;;;;;;;5.30;4.22;;;;;;;15.38;100.00;97900.25;4190651;28;20083;-72
2023/07/30 02:19:54;;;;;;;6.35;3.78;;;;;;;15.41;100.00;97905.00;4189613;28;20370;-72
2023/07/30 02:21:54;;;;;;;4.00;3.60;;;;;;;15.33;100.00;97904.31;4189676;28;20076;-72
2023/07/30 02:23:54;;;;;;;4.40;3.70;;;;;;;15.27;100.00;97902.44;4189130;28;20565;-72
2023/07/30 02:25:55;;;;;;;6.10;4.18;;;;;;;15.24;100.00;97904.06;4190236;28;20056;-72
2023/07/30 02:27:56;;;;;;;6.68;5.47;;;;;;;15.19;100.00;97898.97;4190017;28;20067;-72
2023/07/30 02:29:57;;;;;;;7.72;5.88;;;;;;;15.14;100.00;97897.47;4190694;28;20559;-72
2023/07/30 02:31:59;;;;;;;7.43;5.10;;;;;;;15.16;100.00;97900.59;4189381;28;20068;-72
2023/07/30 02:33:59;;;;;;;9.00;7.47;;;;;;;15.10;100.00;97899.50;4189474;28;20053;-72
2023/07/30 02:36:00;;;;;;;9.82;6.50;;;;;;;15.06;100.00;97901.56;4190042;28;20037;-72
2023/07/30 02:38:00;;;;;;;8.50;4.63;;;;;;;15.06;100.00;97904.34;4190216;28;20144;-72
2023/07/30 02:40:01;;;;;;;6.20;4.22;;;;;;;15.07;100.00;97897.56;4190088;28;20519;-72
2023/07/30 02:42:02;;;;;;;5.53;3.92;;;;;;;15.13;100.00;97907.00;4189429;28;20083;-72
2023/07/30 02:44:02;;;;;;;8.80;4.20;;;;;;;15.11;100.00;97909.44;4189608;28;20068;-72
2023/07/30 02:46:03;;;;;;;4.35;3.63;;;;;;;15.08;100.00;97901.94;4189625;28;20166;-72
2023/07/30 02:48:03;;;;;;;4.88;3.53;;;;;;;15.06;100.00;97907.16;4189101;28;20028;-72
2023/07/30 02:50:05;;;;;;;5.28;3.40;;;;;;;15.06;100.00;97903.53;4189784;28;20043;-72
2023/07/30 02:52:06;;;;;;;5.78;3.20;;;;;;;15.03;100.00;97916.31;4189672;28;20426;-72
2023/07/30 02:57:03;;;;;;;7.00;4.40;;;;;;;14.93;100.00;97914.50;4188893;28;20067;-72
2023/07/30 02:59:03;;;;;;;6.38;4.35;;;;;;;14.93;100.00;97917.28;4189985;28;20049;-72
2023/07/30 03:01:07;;;;;;;5.28;4.22;;;;;;;14.94;100.00;97912.50;4189542;28;20507;-72
2023/07/30 03:03:08;;;;;;;7.28;4.32;;;;;;;14.92;100.00;97910.13;4188869;28;20053;-72
2023/07/30 03:05:08;;;;;;;9.90;3.92;;;;;;;14.89;100.00;97913.75;4189734;28;20040;-72
2023/07/30 03:07:09;;;;;;;6.78;4.20;;;;;;;14.84;100.00;97912.25;4189516;28;20207;-72
2023/07/30 03:09:09;;;;;;;7.28;4.18;;;;;;;14.80;100.00;97910.69;4189393;28;20048;-72
2023/07/30 03:11:10;;;;;;;6.20;3.90;;;;;;;14.71;100.00;97911.22;4189742;28;20056;-72
2023/07/30 03:13:10;;;;;;;7.22;3.55;;;;;;;14.61;100.00;97917.72;4188724;28;20044;-72
2023/07/30 03:15:10;;;;;;;4.95;3.40;;;;;;;14.60;100.00;97921.72;4189847;28;20139;-72
2023/07/30 03:17:10;;;;;;;5.47;3.50;;;;;;;14.59;100.00;97920.94;4189853;28;20659;-72
2023/07/30 03:19:11;;;;;;;4.53;3.15;;;;;;;14.64;100.00;97928.03;4189268;28;20036;-72
2023/07/30 03:21:11;;;;;;;6.85;3.80;;;;;;;14.60;100.00;97922.50;4189183;28;20052;-72
2023/07/30 03:23:11;;;;;;;4.85;3.28;;;;;;;14.66;100.00;97925.63;4188497;28;20396;-72
2023/07/30 03:25:12;;;;;;;4.75;3.25;;;;;;;14.70;100.00;97928.34;4189376;28;20044;-72
2023/07/30 03:27:12;;;;;;;4.25;3.20;;;;;;;14.68;100.00;97922.41;4188756;28;20052;-72
2023/07/30 03:29:12;;;;;;;5.68;3.35;;;;;;;14.61;100.00;97929.66;4189287;28;20071;-71
2023/07/30 03:31:13;;;;;;;4.88;3.30;;;;;;;14.63;100.00;97926.44;4189476;28;20056;-72
2023/07/30 03:33:13;;;;;;;9.35;4.00;;;;;;;14.54;100.00;97934.53;4188555;28;20486;-72
2023/07/30 03:35:14;;;;;;;7.47;3.45;;;;;;;14.52;100.00;97937.72;4188919;28;20044;-72
2023/07/30 03:37:14;;;;;;;5.72;3.60;;;;;;;14.48;100.00;97941.75;4189835;28;20063;-72
2023/07/30 03:39:14;;;;;;;5.15;3.13;;;;;;;14.45;100.00;97945.34;4188764;28;20048;-72
2023/07/30 03:41:15;;;;;;;7.75;3.20;;;;;;;14.44;100.00;97950.13;4189118;28;20060;-72
2023/07/30 03:43:15;;;;;;;4.22;3.40;;;;;;;14.39;100.00;97945.00;4188882;28;20056;-72
2023/07/30 03:45:15;;;;;;;5.43;3.67;;;;;;;14.33;100.00;97949.47;4189049;28;20055;-72
2023/07/30 03:47:16;;;;;;;5.45;2.80;;;;;;;14.35;100.00;97947.06;4189184;28;20127;-72
2023/07/30 03:49:16;;;;;;;5.30;3.13;;;;;;;14.40;100.00;97957.75;4188725;28;20072;-72
2023/07/30 03:51:16;;;;;;;6.70;3.38;;;;;;;14.40;100.00;97945.81;4189043;28;20058;-72
2023/07/30 03:53:17;;;;;;;4.63;3.10;;;;;;;14.41;100.00;97952.97;4188785;28;20542;-72
2023/07/30 03:55:17;;;;;;;4.93;3.15;;;;;;;14.39;100.00;97950.56;4189190;28;20053;-72
2023/07/30 03:57:17;;;;;;;3.95;3.25;;;;;;;14.41;100.00;97948.19;4189587;28;20041;-72
2023/07/30 03:59:18;;;;;;;4.15;3.50;;;;;;;14.39;100.00;97955.34;4188914;28;20098;-72
2023/07/30 04:01:18;;;;;;;4.43;3.13;;;;;;;14.39;100.00;97953.38;4188232;28;20559;-72
2023/07/30 04:03:18;;;;;;;3.50;3.10;;;;;;;14.38;100.00;97954.56;4188683;28;20109;-72
2023/07/30 04:05:19;;;;;;;3.28;2.97;;;;;;;14.35;100.00;97960.97;4188971;28;20064;-72
2023/07/30 04:07:19;;;;;;;5.13;3.53;;;;;;;14.37;100.00;97960.56;4189201;28;20040;-72
2023/07/30 04:09:19;;;;;;;5.85;3.38;;;;;;;14.38;100.00;97967.69;4189374;28;20040;-72
2023/07/30 04:11:20;;;;;;;5.05;3.53;;;;;;;14.37;100.00;97966.13;4188811;28;20083;-72
2023/07/30 04:13:20;;;;;;;5.95;3.33;;;;;;;14.32;100.00;97956.25;4188484;28;20047;-72
2023/07/30 04:15:20;;;;;;;3.92;3.17;;;;;;;14.35;100.00;97958.19;4188847;28;20052;-72
2023/07/30 04:17:21;;;;;;;4.28;2.97;;;;;;;14.36;100.00;97970.13;4188707;28;20060;-72
2023/07/30 04:19:21;;;;;;;5.35;3.47;;;;;;;14.36;100.00;97958.97;4188992;28;20054;-72
2023/07/30 04:21:21;;;;;;;3.92;2.88;;;;;;;14.36;100.00;97967.34;4188455;28;20044;-72
2023/07/30 04:23:22;;;;;;;5.30;3.35;;;;;;;14.41;100.00;97967.69;4187956;28;20055;-72
2023/07/30 04:25:22;;;;;;;5.40;2.92;;;;;;;14.44;100.00;97972.41;4188984;28;20048;-72
2023/07/30 04:27:22;;;;;;;4.57;3.65;;;;;;;14.46;100.00;97978.34;4188958;28;20151;-72
2023/07/30 04:29:23;;;;;;;3.70;2.97;;;;;;;14.47;100.00;97977.16;4189132;28;20040;-72
2023/07/30 04:31:23;;;;;;;4.30;2.88;;;;;;;14.50;100.00;97987.47;4188397;28;20128;-72
2023/07/30 04:33:23;;;;;;;4.68;3.05;;;;;;;14.51;100.00;97977.13;4188215;28;20041;-72
2023/07/30 04:35:24;;;;;;;3.38;2.88;;;;;;;14.54;100.00;97982.63;4189600;28;20040;-72
2023/07/30 04:37:24;;;;;;;5.43;3.58;;;;;;;14.56;100.00;97982.22;4192148;28;20427;-72
2023/07/30 04:39:24;;;;;;;4.13;3.17;;;;;;;14.58;100.00;97980.63;4192173;28;20060;-72
2023/07/30 04:41:25;;;;;;;4.65;3.00;;;;;;;14.55;100.00;97991.78;4191673;28;20192;-72
2023/07/30 04:43:25;;;;;;;4.80;3.00;;;;;;;14.59;100.00;97989.75;4191363;28;20080;-72
2023/07/30 04:45:25;;;;;;;5.05;3.38;;;;;;;14.62;100.00;97988.91;4191540;28;20111;-72
2023/07/30 04:47:26;;;;;;;2.95;2.65;;;;;;;14.67;100.00;97998.81;4191010;28;20548;-72
2023/07/30 04:49:26;;;;;;;4.30;2.83;;;;;;;14.70;100.00;98003.53;4192058;28;20441;-72
2023/07/30 04:51:26;;;;;;;4.60;2.90;;;;;;;14.72;100.00;98001.91;4191363;28;20131;-72
2023/07/30 04:53:26;;;;;;;5.40;3.13;;;;;;;14.77;100.00;98009.81;4191406;28;20139;-72
2023/07/30 04:55:27;;;;;;;4.63;2.70;;;;;;;14.80;100.00;98005.38;4191620;28;20086;-72
2023/07/30 04:57:27;;;;;;;3.97;3.20;;;;;;;14.83;100.00;98002.56;4191699;28;20071;-72
2023/07/30 04:59:27;;;;;;;4.70;3.05;;;;;;;14.83;100.00;98004.56;4192003;28;20036;-72
2023/07/30 05:01:28;;;;;;;7.45;3.97;;;;;;;14.85;100.00;98004.94;4191601;28;20048;-72
2023/07/30 05:03:28;;;;;;;4.53;2.78;;;;;;;14.84;100.00;98011.72;4191046;28;20048;-72
2023/07/30 05:05:29;;;;;;;4.95;2.90;;;;;;;14.85;100.00;98016.06;4191562;28;20105;-72
2023/07/30 05:07:29;;;;;;;4.72;2.50;;;;;;;14.93;100.00;98017.56;4191642;28;20044;-72
2023/07/30 05:09:29;;;;;;;4.20;2.65;;;;;;;15.07;100.00;98028.53;4191511;28;20047;-72
2023/07/30 05:11:29;;;;;;;3.25;2.67;;;;;;;15.19;100.00;98027.16;4173300;28;20118;-72
2023/07/30 05:13:30;;;;;;;3.47;3.05;;;;;;;15.27;100.00;98022.25;4190895;28;20072;-72
2023/07/30 05:15:30;;;;;;;4.38;3.20;;;;;;;15.30;100.00;98022.19;4191278;28;20067;-72
2023/07/30 05:17:30;;;;;;;4.07;2.92;;;;;;;15.38;100.00;98025.66;4190612;28;20053;-72
2023/07/30 05:19:32;;;;;;;4.53;3.20;;;;;;;15.55;100.00;98023.81;4190916;28;20476;-72
2023/07/30 05:21:32;;;;;;;3.58;2.65;;;;;;;15.71;100.00;98024.00;4191415;28;20040;-72
2023/07/30 05:23:32;;;;;;;3.47;2.80;;;;;;;15.87;100.00;98023.34;4191745;28;20135;-72
2023/07/30 05:25:32;;;;;;;3.78;3.15;;;;;;;15.89;100.00;98013.34;4190909;28;20056;-72
2023/07/30 05:27:33;;;;;;;4.32;3.92;;;;;;;15.94;100.00;98018.44;4191667;28;21007;-72
2023/07/30 05:29:33;;;;;;;4.70;3.40;;;;;;;16.01;100.00;98028.69;4191514;28;20079;-72
2023/07/30 05:31:34;;;;;;;5.85;3.97;;;;;;;16.07;100.00;98020.63;4188390;28;20048;-72
2023/07/30 05:33:34;;;;;;;4.10;3.70;;;;;;;16.24;100.00;98022.31;4186062;28;20094;-72
2023/07/30 05:35:34;;;;;;;6.57;3.40;;;;;;;16.29;100.00;98024.56;4191367;28;20535;-72
2023/07/30 05:37:35;;;;;;;4.82;3.90;;;;;;;16.34;100.00;98014.94;4190006;28;20167;-71
2023/07/30 05:39:35;;;;;;;4.45;3.63;;;;;;;16.38;100.00;98032.41;4158791;28;20187;-72
2023/07/30 05:41:35;;;;;;;4.60;3.47;;;;;;;16.36;100.00;98023.66;4192659;28;20056;-72
2023/07/30 05:43:36;;;;;;;10.55;3.70;;;;;;;16.41;100.00;98029.56;4190002;28;20040;-72
2023/07/30 05:45:36;;;;;;;4.78;3.92;;;;;;;16.43;100.00;98034.69;4190075;28;20248;-71
2023/07/30 05:47:37;;;;;;;4.00;3.20;;;;;;;16.44;100.00;98022.31;4190063;28;20982;-72
2023/07/30 05:49:37;;;;;;;4.68;3.35;;;;;;;16.46;100.00;98022.66;4189938;28;20063;-72
2023/07/30 05:51:37;;;;;;;6.88;3.60;;;;;;;16.46;100.00;98019.88;4190905;28;20360;-71
2023/07/30 05:53:38;;;;;;;4.63;3.42;;;;;;;16.46;100.00;98020.66;4189329;28;20120;-71
2023/07/30 05:55:38;;;;;;;3.22;2.92;;;;;;;16.51;100.00;98031.34;4172711;28;20045;-72
2023/07/30 05:57:38;;;;;;;5.07;3.15;;;;;;;16.62;100.00;98028.34;4190355;28;20389;-71
2023/07/30 05:59:39;;;;;;;3.90;3.13;;;;;;;16.63;100.00;98023.53;4187791;28;20476;-72
2023/07/30 06:01:39;;;;;;;4.68;3.50;;;;;;;16.65;100.00;98029.50;4190707;28;20080;-72
2023/07/30 06:03:39;;;;;;;4.93;3.65;;;;;;;16.64;100.00;98028.72;4189904;28;20529;-72
2023/07/30 06:05:42;;;;;;;4.93;3.33;;;;;;;16.67;100.00;98021.47;4190359;28;20056;-72
2023/07/30 06:07:43;;;;;;;3.47;3.17;;;;;;;16.78;100.00;98028.44;4190621;28;20551;-72
2023/07/30 06:09:45;;;;;;;6.32;3.55;;;;;;;16.93;100.00;98033.72;4191106;28;20083;-72
2023/07/30 06:11:45;;;;;;;3.88;3.50;;;;;;;17.00;100.00;98025.19;4190151;28;20086;-72
2023/07/30 06:13:45;;;;;;;3.85;3.20;;;;;;;17.10;100.00;98022.16;4189289;28;20045;-72
2023/07/30 06:15:46;;;;;;;4.47;3.40;;;;;;;17.22;100.00;98029.13;4190748;28;20036;-72
2023/07/30 06:17:47;;;;;;;3.72;3.33;;;;;;;17.35;100.00;98041.19;4190525;28;20487;-71
2023/07/30 06:19:47;;;;;;;3.92;3.30;;;;;;;17.47;100.00;98036.16;4190908;28;20048;-72
2023/07/30 06:21:47;;;;;;;3.97;3.38;;;;;;;17.62;100.00;98040.16;4190447;28;20040;-72
2023/07/30 06:23:47;;;;;;;5.57;3.40;;;;;;;17.72;100.00;98039.19;4189219;28;20063;-72
2023/07/30 06:25:48;;;;;;;4.78;3.50;;;;;;;17.87;100.00;98037.63;4190456;28;20040;-71
2023/07/30 06:27:48;;;;;;;4.63;2.90;;;;;;;17.95;100.00;98025.00;4189354;28;20032;-72
2023/07/30 06:29:48;;;;;;;4.50;2.70;;;;;;;18.07;100.00;98023.50;4189898;28;20041;-72
2023/07/30 06:31:49;;;;;;;3.35;2.72;;;;;;;18.12;100.00;98024.97;4189761;28;20083;-72
2023/07/30 06:33:49;;;;;;;3.85;2.40;;;;;;;18.17;100.00;98018.84;4188604;28;20048;-72
2023/07/30 06:35:50;;;;;;;4.20;2.30;;;;;;;18.19;100.00;98022.78;4191367;28;20145;-72
2023/07/30 06:37:50;;;;;;;5.68;2.67;;;;;;;18.32;100.00;98024.88;4189965;28;20058;-72
2023/07/30 06:39:51;;;;;;;3.55;2.30;;;;;;;18.38;100.00;98012.69;4190437;28;20565;-72
2023/07/30 06:41:51;;;;;;;2.90;1.92;;;;;;;18.42;100.00;98013.38;4189966;28;20458;-72
2023/07/30 06:43:51;;;;;;;3.13;1.95;;;;;;;18.47;100.00;98024.03;4188614;28;20068;-72
2023/07/30 06:45:54;;;;;;;3.15;2.03;;;;;;;18.46;100.00;98016.88;4189886;28;20381;-72
2023/07/30 06:47:54;;;;;;;3.28;2.20;;;;;;;18.52;100.00;98017.09;4189561;28;20134;-73
2023/07/30 06:49:54;;;;;;;3.97;2.15;;;;;;;18.53;99.91;98029.88;4191670;28;20049;-72
2023/07/30 06:51:55;;;;;;;2.67;2.00;;;;;;;18.60;99.43;98028.91;4190257;28;20192;-72
2023/07/30 06:53:55;;;;;;;2.90;1.80;;;;;;;18.63;99.09;98026.00;4189080;28;20136;-72
2023/07/30 06:55:55;;;;;;;4.55;2.00;;;;;;;18.65;100.00;98031.16;4189442;28;20483;-72
2023/07/30 06:57:56;;;;;;;3.45;2.00;;;;;;;18.64;100.00;98033.19;4186938;28;20040;-72
2023/07/30 06:59:57;;;;;;;4.47;1.67;;;;;;;18.64;96.62;98032.41;4188146;28;20045;-72
2023/07/30 07:01:59;;;;;;;2.20;1.60;;;;;;;18.65;94.40;98025.56;4190947;28;20083;-72
2023/07/30 07:03:59;;;;;;;2.97;1.83;;;;;;;18.62;95.88;98037.63;4189380;28;20566;-72
2023/07/30 07:05:59;;;;;;;4.30;1.77;;;;;;;18.71;93.10;98040.63;4190061;28;20052;-72
2023/07/30 07:08:00;;;;;;;3.42;1.52;;;;;;;18.82;96.18;98043.13;4190258;28;20406;-72
2023/07/30 07:10:00;;;;;;;5.05;1.95;;;;;;;18.86;95.15;98041.00;4189654;28;20052;-72
2023/07/30 07:12:00;;;;;;;3.40;1.55;;;;;;;18.94;93.04;98045.16;4189015;28;20297;-72
2023/07/30 07:14:01;;;;;;;2.63;1.77;;;;;;;18.90;93.33;98041.69;4188697;28;20483;-72
2023/07/30 07:16:01;;;;;;;2.75;1.40;;;;;;;18.85;92.44;98043.00;4189620;28;20139;-72
2023/07/30 07:18:01;;;;;;;2.08;1.52;;;;;;;18.94;91.12;98037.53;4189491;28;20029;-72
2023/07/30 07:20:04;;;;;;;2.00;1.40;;;;;;;18.98;91.34;98046.66;4189682;28;20115;-72
2023/07/30 07:22:05;;;;;;;1.48;1.15;;;;;;;18.94;91.50;98054.38;4189299;28;20040;-72
2023/07/30 07:24:05;;;;;;;5.55;1.70;;;;;;;18.89;91.42;98051.34;4188416;28;20667;-72
2023/07/30 07:26:06;;;;;;;2.97;1.30;;;;;;;18.95;90.28;98044.75;4188565;28;20020;-72
2023/07/30 07:28:06;;;;;;;2.75;1.83;;;;;;;18.79;90.47;98042.78;4185108;28;20054;-72
2023/07/30 07:30:07;;;;;;;2.53;1.40;;;;;;;18.90;91.86;98045.28;4186571;28;20029;-72
2023/07/30 07:32:07;;;;;;;5.45;2.60;;;;;;;19.00;93.19;98037.78;4187896;28;20475;-72
2023/07/30 07:34:08;;;;;;;2.63;1.60;;;;;;;19.03;93.31;98040.50;4189490;28;20024;-72
2023/07/30 07:36:08;;;;;;;3.28;1.85;;;;;;;19.23;94.94;98040.31;4190766;28;21635;-72
2023/07/30 07:38:08;;;;;;;4.78;2.00;;;;;;;19.34;94.88;98037.94;4189528;28;20111;-72
2023/07/30 07:40:09;;;;;;;2.70;1.80;;;;;;;19.45;94.85;98045.28;4185174;28;20050;-72
2023/07/30 07:42:10;;;;;;;3.65;1.80;;;;;;;19.44;93.09;98046.47;4187474;28;20044;-72
2023/07/30 07:44:10;;;;;;;3.03;1.98;;;;;;;19.47;92.98;98034.38;4185613;28;20032;-72
2023/07/30 07:46:13;;;;;;;2.08;1.77;;;;;;;19.50;95.91;98025.06;4181562;28;20029;-72
2023/07/30 07:48:13;;;;;;;;;;;;;;;19.60;94.66;98038.78;4189997;28;20141;-72
2023/07/30 07:50:13;;;;;;;3.00;2.10;;;;;;;19.78;93.70;98032.59;4190314;28;20006;-72
2023/07/30 07:52:14;;;;;;;3.92;2.45;;;;;;;19.92;95.99;98042.56;4189110;28;20374;-72
2023/07/30 07:54:15;;;;;;;3.55;1.95;;;;;;;19.96;93.72;98034.03;4185724;28;20550;-72
2023/07/30 07:56:15;;;;;;;2.33;1.77;;;;;;;20.02;94.24;98038.63;4186019;28;20070;-72
2023/07/30 07:58:15;;;;;;;2.35;2.00;;;;;;;20.10;94.32;98037.13;4188501;28;20086;-72
2023/07/30 08:00:17;;;;;;;2.20;1.90;;;;;;;20.18;92.61;98046.09;4187277;28;20101;-72
2023/07/30 08:02:18;;;;;;;2.83;1.83;;;;;;;20.20;92.04;98043.66;4190985;28;20020;-72
2023/07/30 08:04:21;;;;;;;2.55;2.10;;;;;;;20.21;93.28;98048.03;4186763;28;20468;-72
2023/07/30 08:06:21;;;;;;;;;;;;;;;20.31;93.04;98044.06;4188140;28;20041;-72
2023/07/30 08:08:21;;;;;;;3.13;1.77;;;;;;;20.36;92.66;98039.91;4189153;28;19925;-72
2023/07/30 08:10:22;;;;;;;3.50;1.73;;;;;;;20.38;92.21;98041.00;4188153;28;20316;-72
2023/07/30 08:12:22;;;;;;;1.98;1.65;;;;;;;20.48;90.42;98039.09;4187199;28;20510;-72
2023/07/30 08:14:23;;;;;;;2.67;1.90;;;;;;;20.56;93.29;98036.81;4191131;28;20040;-72
2023/07/30 08:16:23;;;;;;;1.85;1.42;;;;;;;20.65;93.03;98034.84;4191032;28;20036;-72
2023/07/30 08:18:23;;;;;;;2.38;1.85;;;;;;;20.78;95.35;98022.78;4189263;28;21316;-72
2023/07/30 08:20:23;;;;;;;3.00;1.70;;;;;;;20.90;90.02;98027.53;4193171;28;20060;-72
2023/07/30 08:22:24;;;;;;;4.57;1.60;;;;;;;20.92;90.43;98031.47;4192052;28;20116;-72
2023/07/30 08:24:24;;;;;;;3.35;1.52;;;;;;;20.96;91.29;98029.31;4191412;28;20049;-72
2023/07/30 08:26:24;;;;;;;2.70;1.42;;;;;;;21.03;89.67;98022.63;4192507;28;20045;-72
2023/07/30 08:28:25;;;;;;;3.58;1.80;;;;;;;20.96;90.06;98032.13;4193113;28;20071;-72
2023/07/30 08:30:25;;;;;;;3.10;1.63;;;;;;;20.94;89.77;98033.84;4191559;28;20080;-72
2023/07/30 08:32:25;;;;;;;2.65;1.60;;;;;;;20.89;90.09;98023.94;4191374;28;20044;-72
2023/07/30 08:34:26;;;;;;;2.40;1.73;;;;;;;21.00;91.41;98031.97;4191839;28;20045;-72
2023/07/30 08:36:26;;;;;;;1.77;1.48;;;;;;;21.17;88.77;98029.72;4192002;28;20195;-72
2023/07/30 08:38:28;;;;;;;2.50;1.45;;;;;;;21.16;90.52;98026.13;4191946;28;20040;-72
2023/07/30 08:40:29;;;;;;;2.20;1.40;;;;;;;21.11;89.90;98018.31;4191829;28;20669;-72
2023/07/30 08:42:29;;;;;;;2.92;1.63;;;;;;;21.09;89.12;98028.44;4191202;28;20272;-72
2023/07/30 08:44:30;;;;;;;1.80;1.33;;;;;;;21.27;90.72;98020.16;4173247;28;20079;-72
2023/07/30 08:46:30;;;;;;;2.30;1.50;;;;;;;21.40;90.83;98037.72;4191981;28;20048;-72
2023/07/30 08:48:30;;;;;;;2.92;1.63;;;;;;;21.44;89.17;98034.78;4191515;28;20045;-72
2023/07/30 08:50:32;;;;;;;3.38;1.38;;;;;;;21.47;87.04;98031.03;4191961;28;20081;-72
2023/07/30 08:52:35;;;;;;;4.68;1.40;;;;;;;21.55;88.56;98041.53;4191484;28;20036;-72
2023/07/30 08:54:37;;;;;;;1.50;1.30;;;;;;;21.62;86.25;98042.50;4192105;28;20317;-72
2023/07/30 08:56:37;;;;;;;1.55;1.38;;;;;;;21.58;86.36;98026.53;4192835;28;20451;-72
2023/07/30 08:58:38;;;;;;;2.03;1.33;;;;;;;21.50;86.81;98018.81;4192149;28;20045;-72
2023/07/30 09:00:42;;;;;;;2.72;1.40;;;;;;;21.62;87.71;98029.22;4191807;28;20036;-72
2023/07/30 09:02:51;;;;;;;3.47;1.73;;;;;;;21.69;87.92;98026.13;4190965;28;20139;-72
2023/07/30 09:04:56;;;;;;;2.03;1.33;;;;;;;21.66;86.55;98023.44;4191175;28;20310;-72
2023/07/30 09:06:56;;;;;;;2.10;1.35;;;;;;;21.73;87.34;98028.78;4192125;28;20052;-72
2023/07/30 09:08:56;;;;;;;2.03;1.17;;;;;;;21.83;85.49;98024.72;4190992;28;20048;-72
2023/07/30 09:10:57;;;;;;;4.82;1.50;;;;;;;21.98;87.53;98031.34;4191522;28;20035;-72
2023/07/30 09:12:58;;;;;;;3.78;1.55;;;;;;;22.10;87.15;98027.66;4190742;28;20083;-72
2023/07/30 09:15:00;;;;;;;2.50;1.25;;;;;;;22.29;85.38;98031.28;4187410;28;20041;-72
2023/07/30 09:17:00;;;;;;;2.20;1.40;;;;;;;22.43;85.06;98024.25;4191031;28;20074;-72
2023/07/30 09:19:00;;;;;;;1.42;1.20;;;;;;;22.44;83.09;98028.66;4192592;28;20488;-72
2023/07/30 09:21:02;;;;;;;2.63;1.65;;;;;;;22.53;86.91;98036.31;4191527;28;20072;-72
2023/07/30 09:23:02;;;;;;;2.40;1.50;;;;;;;22.60;82.22;98022.69;4189072;28;20044;-72
2023/07/30 09:25:03;;;;;;;1.73;1.33;;;;;;;22.53;83.57;98025.81;4191148;28;20373;-72